createdAt,value
2023-03-27T00:01:18.297Z,8.68
2023-03-27T00:03:50.002Z,9.02
2023-03-27T00:06:20.267Z,8.48
2023-03-27T00:08:51.423Z,8.52
2023-03-27T00:11:21.498Z,8.05
2023-03-27T00:13:51.467Z,8.00
2023-03-27T00:16:21.838Z,8.50
2023-03-27T00:18:50.325Z,8.10
2023-03-27T00:21:18.354Z,7.85
2023-03-27T00:23:47.161Z,8.15
2023-03-27T00:26:15.678Z,7.90
2023-03-27T00:28:44.417Z,7.97
2023-03-27T00:31:13.913Z,8.73
2023-03-27T00:33:43.551Z,8.68
2023-03-27T00:36:11.880Z,8.43
2023-03-27T00:38:41.238Z,7.68
2023-03-27T00:41:09.306Z,8.38
2023-03-27T00:43:45.095Z,7.80
2023-03-27T00:46:39.111Z,7.30
2023-03-27T00:49:12.221Z,7.50
2023-03-27T00:51:42.987Z,7.60
2023-03-27T00:54:16.587Z,7.22
2023-03-27T00:56:46.369Z,7.35
2023-03-27T00:59:19.294Z,7.20
2023-03-27T01:01:48.216Z,6.72
2023-03-27T01:04:21.639Z,6.93
2023-03-27T01:06:54.604Z,6.53
2023-03-27T01:09:23.515Z,6.90
2023-03-27T01:12:15.501Z,7.20
2023-03-27T01:15:10.148Z,6.55
2023-03-27T01:18:11.362Z,6.95
2023-03-27T01:20:58.019Z,7.03
2023-03-27T01:24:16.417Z,6.47
2023-03-27T01:27:13.318Z,6.35
2023-03-27T01:30:07.215Z,5.93
2023-03-27T01:33:00.169Z,5.78
2023-03-27T01:35:37.437Z,5.75
2023-03-27T01:38:21.540Z,6.47
2023-03-27T01:41:25.736Z,5.88
2023-03-27T01:44:17.739Z,7.32
2023-03-27T01:46:55.678Z,6.30
2023-03-27T01:49:31.537Z,6.38
2023-03-27T01:52:04.543Z,7.88
2023-03-27T01:54:39.660Z,7.68
2023-03-27T01:57:25.081Z,8.30
2023-03-27T02:00:18.659Z,8.98
2023-03-27T02:03:17.024Z,9.07
2023-03-27T02:05:48.934Z,7.57
2023-03-27T02:08:30.167Z,8.88
2023-03-27T02:11:08.134Z,7.40
2023-03-27T02:13:40.758Z,6.63
2023-03-27T02:16:14.189Z,6.72
2023-03-27T02:18:48.034Z,6.68
2023-03-27T02:21:17.065Z,6.50
2023-03-27T02:23:45.710Z,6.13
2023-03-27T02:26:14.706Z,6.85
2023-03-27T02:28:56.457Z,6.80
2023-03-27T02:32:02.178Z,7.15
2023-03-27T02:34:30.214Z,6.95
2023-03-27T02:37:05.427Z,7.18
2023-03-27T02:40:16.370Z,8.52
2023-03-27T02:43:08.130Z,7.68
2023-03-27T02:45:51.527Z,8.73
2023-03-27T02:48:44.524Z,8.13
2023-03-27T02:51:41.762Z,8.82
2023-03-27T02:54:17.781Z,9.85
2023-03-27T02:56:52.624Z,9.32
2023-03-27T02:59:35.812Z,9.85
2023-03-27T03:02:09.865Z,9.57
2023-03-27T03:04:58.156Z,9.30
2023-03-27T03:07:46.915Z,10.02
2023-03-27T03:10:16.461Z,9.13
2023-03-27T03:12:44.274Z,9.75
2023-03-27T03:15:12.954Z,8.55
2023-03-27T03:17:41.038Z,9.43
2023-03-27T03:20:10.120Z,9.52
2023-03-27T03:22:40.364Z,10.25
2023-03-27T03:25:11.011Z,10.35
2023-03-27T03:27:41.738Z,9.40
2023-03-27T03:30:16.886Z,8.48
2023-03-27T03:32:53.333Z,10.10
2023-03-27T03:35:23.966Z,9.52
2023-03-27T03:37:53.746Z,10.88
2023-03-27T03:40:22.515Z,10.77
2023-03-27T03:42:53.215Z,11.50
2023-03-27T03:45:25.698Z,10.77
2023-03-27T03:47:53.756Z,10.25
2023-03-27T03:50:24.511Z,10.40
2023-03-27T03:52:52.572Z,11.07
2023-03-27T03:55:25.986Z,10.43
2023-03-27T03:57:54.057Z,12.02
2023-03-27T04:00:28.566Z,10.82
2023-03-27T04:03:04.722Z,11.20
2023-03-27T04:05:37.652Z,11.80
2023-03-27T04:08:10.109Z,11.35
2023-03-27T04:11:09.029Z,10.73
2023-03-27T04:14:03.026Z,10.07
2023-03-27T04:16:37.968Z,11.23
2023-03-27T04:19:18.588Z,11.00
2023-03-27T04:21:55.458Z,11.02
2023-03-27T04:24:26.724Z,11.15
2023-03-27T04:26:55.124Z,10.55
2023-03-27T04:29:30.500Z,11.05
2023-03-27T04:32:02.059Z,11.68
2023-03-27T04:34:42.905Z,11.95
2023-03-27T04:37:27.465Z,11.07
2023-03-27T04:40:07.224Z,10.85
2023-03-27T04:42:35.571Z,10.05
2023-03-27T04:45:04.462Z,10.85
2023-03-27T04:47:38.540Z,13.90
2023-03-27T04:50:08.494Z,11.15
2023-03-27T04:52:37.661Z,11.15
2023-03-27T04:55:07.323Z,13.02
2023-03-27T04:57:35.762Z,10.43
2023-03-27T05:00:16.675Z,11.07
2023-03-27T05:02:48.184Z,12.73
2023-03-27T05:05:33.538Z,10.93
2023-03-27T05:08:10.777Z,11.03
2023-03-27T05:10:41.660Z,11.80
2023-03-27T05:13:13.124Z,12.63
2023-03-27T05:15:48.345Z,10.60
2023-03-27T05:18:22.055Z,7.93
2023-03-27T05:20:53.631Z,9.07
2023-03-27T05:23:28.564Z,7.65
2023-03-27T05:26:00.230Z,7.80
2023-03-27T05:28:45.343Z,6.57
2023-03-27T05:31:13.846Z,6.18
2023-03-27T05:34:00.604Z,5.68
2023-03-27T05:36:37.903Z,5.30
2023-03-27T05:39:09.339Z,6.18
2023-03-27T05:41:41.956Z,5.80
2023-03-27T05:44:12.794Z,5.10
2023-03-27T05:47:14.815Z,5.43
2023-03-27T05:49:44.369Z,5.38
2023-03-27T05:52:28.754Z,4.80
2023-03-27T05:55:08.806Z,4.38
2023-03-27T05:58:07.010Z,4.43
2023-03-27T06:00:36.628Z,4.65
2023-03-27T06:03:13.520Z,3.70
2023-03-27T06:06:12.824Z,3.55
2023-03-27T06:08:50.034Z,3.40
2023-03-27T06:11:24.302Z,3.13
2023-03-27T06:13:53.183Z,2.97
2023-03-27T06:16:42.703Z,3.15
2023-03-27T06:19:35.772Z,2.80
2023-03-27T06:22:13.877Z,2.97
2023-03-27T06:24:54.039Z,3.10
2023-03-27T06:27:38.422Z,2.95
2023-03-27T06:30:13.250Z,2.60
2023-03-27T06:33:00.063Z,2.70
2023-03-27T06:35:33.727Z,2.28
2023-03-27T06:38:35.321Z,2.63
2023-03-27T06:41:04.640Z,2.25
2023-03-27T06:48:13.439Z,2.45
2023-03-27T07:01:39.775Z,2.42
2023-03-27T07:06:04.382Z,2.45
2023-03-27T07:08:01.183Z,2.45
2023-03-27T07:11:24.241Z,2.20
2023-03-27T07:14:12.593Z,2.30
2023-03-27T07:18:15.559Z,1.90
2023-03-27T07:21:30.108Z,2.00
2023-03-27T07:32:52.510Z,2.00
2023-03-27T07:47:35.493Z,1.80
2023-03-27T07:54:50.738Z,1.67
2023-03-27T07:58:24.784Z,1.65
2023-03-27T08:01:02.770Z,1.42
2023-03-27T08:03:32.862Z,1.60
2023-03-27T08:06:01.669Z,1.67
2023-03-27T08:08:32.043Z,3.80
2023-03-27T08:11:05.634Z,1.10
2023-03-27T08:13:38.588Z,1.13
2023-03-27T08:16:17.891Z,1.08
2023-03-27T08:19:16.699Z,1.08
2023-03-27T08:22:36.565Z,1.40
2023-03-27T08:26:16.748Z,1.00
2023-03-27T08:28:54.495Z,1.08
2023-03-27T08:31:25.967Z,1.00
2023-03-27T08:33:56.413Z,1.08
2023-03-27T08:36:28.077Z,1.00
2023-03-27T08:38:57.420Z,0.90
2023-03-27T08:44:31.443Z,0.95
2023-03-27T08:47:32.268Z,0.70
2023-03-27T08:50:25.806Z,1.00
2023-03-27T08:53:17.786Z,1.00
2023-03-27T08:55:49.517Z,1.00
2023-03-27T08:58:34.946Z,1.27
2023-03-27T09:01:45.887Z,1.10
2023-03-27T09:04:22.563Z,0.60
2023-03-27T09:07:36.424Z,0.70
2023-03-27T09:10:25.689Z,1.02
2023-03-27T09:13:10.107Z,0.90
2023-03-27T09:15:58.845Z,0.80
2023-03-27T09:18:40.894Z,0.93
2023-03-27T09:21:21.528Z,0.82
2023-03-27T09:23:50.524Z,0.90
2023-03-27T09:26:37.971Z,0.93
2023-03-27T09:29:22.631Z,0.85
2023-03-27T09:31:59.582Z,0.60
2023-03-27T09:34:33.794Z,1.00
2023-03-27T09:37:02.835Z,0.85
2023-03-27T09:39:34.399Z,0.80
2023-03-27T09:42:21.232Z,0.70
2023-03-27T09:44:57.673Z,0.85
2023-03-27T09:47:59.930Z,0.88
2023-03-27T09:50:44.730Z,0.80
2023-03-27T09:53:58.572Z,0.52
2023-03-27T09:56:31.471Z,0.60
2023-03-27T09:58:59.633Z,0.70
2023-03-27T10:01:31.117Z,0.90
2023-03-27T10:04:18.600Z,0.98
2023-03-27T10:06:50.458Z,0.70
2023-03-27T10:09:29.527Z,0.52
2023-03-27T10:12:08.247Z,0.70
2023-03-27T10:14:42.270Z,0.60
2023-03-27T10:17:38.289Z,0.47
2023-03-27T10:20:19.068Z,0.40
2023-03-27T10:23:01.644Z,0.80
2023-03-27T10:25:38.942Z,0.60
2023-03-27T10:28:29.567Z,0.50
2023-03-27T10:31:40.757Z,0.52
2023-03-27T10:34:34.321Z,0.68
2023-03-27T10:37:23.367Z,0.70
2023-03-27T10:40:00.592Z,0.60
2023-03-27T10:42:36.753Z,0.57
2023-03-27T10:45:07.910Z,0.82
2023-03-27T10:47:36.247Z,0.50
2023-03-27T10:50:28.179Z,0.70
2023-03-27T10:53:20.935Z,0.50
2023-03-27T10:56:26.278Z,0.60
2023-03-27T10:59:06.584Z,0.40
2023-03-27T11:01:42.533Z,0.45
2023-03-27T11:04:44.884Z,0.60
2023-03-27T11:07:25.590Z,0.50
2023-03-27T11:10:22.242Z,0.57
2023-03-27T11:13:03.131Z,0.60
2023-03-27T11:15:42.501Z,0.85
2023-03-27T11:18:46.192Z,0.95
2023-03-27T11:21:26.167Z,0.98
2023-03-27T11:24:07.336Z,0.70
2023-03-27T11:27:13.290Z,0.47
2023-03-27T11:30:28.338Z,0.85
2023-03-27T11:33:10.003Z,0.68
2023-03-27T11:35:48.981Z,0.50
2023-03-27T11:38:57.891Z,0.70
2023-03-27T11:41:27.946Z,0.60
2023-03-27T11:43:56.108Z,0.60
2023-03-27T11:47:04.956Z,0.82
2023-03-27T11:50:05.541Z,0.70
2023-03-27T11:52:46.020Z,0.70
2023-03-27T11:55:44.025Z,0.90
2023-03-27T11:58:37.117Z,1.03
2023-03-27T12:01:48.447Z,1.10
2023-03-27T12:04:41.078Z,1.20
2023-03-27T12:08:01.618Z,0.98
2023-03-27T12:10:37.943Z,1.02
2023-03-27T12:13:41.115Z,0.93
2023-03-27T12:16:45.303Z,1.00
2023-03-27T12:19:38.987Z,1.02
2023-03-27T12:22:58.724Z,0.90
2023-03-27T12:26:03.614Z,0.68
2023-03-27T12:29:23.176Z,0.70
2023-03-27T12:32:17.796Z,2.80
2023-03-27T12:35:03.789Z,3.22
2023-03-27T12:37:49.439Z,1.13
2023-03-27T12:40:33.207Z,1.00
2023-03-27T12:43:22.112Z,1.10
2023-03-27T12:46:24.871Z,0.80
2023-03-27T12:49:12.753Z,0.87
2023-03-27T12:51:52.149Z,1.00
2023-03-27T12:55:09.828Z,1.42
2023-03-27T12:57:59.514Z,0.80
2023-03-27T13:00:55.441Z,1.00
2023-03-27T13:03:43.052Z,1.00
2023-03-27T13:06:33.320Z,0.90
2023-03-27T13:09:03.313Z,1.30
2023-03-27T13:12:19.164Z,1.30
2023-03-27T13:15:17.839Z,1.40
2023-03-27T13:18:00.626Z,1.20
2023-03-27T13:21:06.318Z,8.95
2023-03-27T13:24:01.415Z,1.50
2023-03-27T13:26:31.416Z,1.20
2023-03-27T13:29:03.123Z,1.10
2023-03-27T13:31:45.521Z,1.20
2023-03-27T13:34:42.493Z,1.27
2023-03-27T13:37:53.321Z,1.23
2023-03-27T13:40:40.839Z,1.10
2023-03-27T13:43:23.117Z,1.33
2023-03-27T13:46:05.421Z,1.20
2023-03-27T13:48:50.659Z,1.58
2023-03-27T13:52:18.385Z,1.40
2023-03-27T13:55:05.348Z,1.08
2023-03-27T13:57:58.757Z,1.35
2023-03-27T14:00:35.889Z,1.00
2023-03-27T14:03:58.385Z,0.93
2023-03-27T14:06:32.459Z,1.00
2023-03-27T14:09:21.803Z,0.93
2023-03-27T14:12:44.303Z,1.00
2023-03-27T14:15:56.091Z,1.10
2023-03-27T14:18:56.305Z,1.17
2023-03-27T14:21:38.407Z,1.10
2023-03-27T14:24:27.937Z,8.88
2023-03-27T14:27:07.560Z,3.85
2023-03-27T14:29:37.141Z,0.70
2023-03-27T14:32:07.490Z,0.90
2023-03-27T14:34:53.273Z,0.80
2023-03-27T14:38:03.946Z,1.02
2023-03-27T14:40:47.767Z,0.85
2023-03-27T14:43:21.913Z,1.20
2023-03-27T14:46:02.140Z,1.23
2023-03-27T14:48:38.333Z,1.10
2023-03-27T14:51:34.116Z,0.90
2023-03-27T14:54:08.992Z,0.90
2023-03-27T14:56:57.618Z,0.65
2023-03-27T14:59:41.992Z,1.17
2023-03-27T15:02:32.105Z,5.03
2023-03-27T15:05:08.771Z,0.70
2023-03-27T15:07:42.596Z,0.98
2023-03-27T15:10:53.003Z,0.70
2023-03-27T15:13:40.692Z,0.80
2023-03-27T15:16:30.016Z,0.90
2023-03-27T15:19:24.734Z,1.10
2023-03-27T15:22:15.997Z,0.73
2023-03-27T15:24:51.716Z,0.70
2023-03-27T15:27:28.850Z,0.80
2023-03-27T15:30:39.041Z,0.82
2023-03-27T15:33:13.423Z,1.00
2023-03-27T15:35:48.085Z,5.78
2023-03-27T15:38:29.661Z,0.93
2023-03-27T15:41:22.483Z,0.80
2023-03-27T15:43:52.991Z,1.00
2023-03-27T15:46:26.894Z,0.90
2023-03-27T15:48:56.756Z,0.93
2023-03-27T15:51:31.232Z,0.90
2023-03-27T15:54:28.162Z,1.30
2023-03-27T15:57:10.526Z,0.80
2023-03-27T15:59:52.398Z,1.10
2023-03-27T16:02:24.708Z,2.53
2023-03-27T16:04:56.429Z,1.20
2023-03-27T16:07:37.507Z,1.17
2023-03-27T16:10:08.095Z,1.20
2023-03-27T16:12:55.664Z,1.10
2023-03-27T16:15:37.881Z,0.82
2023-03-27T16:18:29.096Z,1.27
2023-03-27T16:21:07.360Z,1.20
2023-03-27T16:23:36.348Z,1.10
2023-03-27T16:26:07.708Z,1.20
2023-03-27T16:28:36.186Z,1.17
2023-03-27T16:31:17.011Z,1.40
2023-03-27T16:33:46.461Z,1.45
2023-03-27T16:36:25.916Z,1.10
2023-03-27T16:38:53.952Z,1.70
2023-03-27T16:41:22.439Z,3.53
2023-03-27T16:43:50.913Z,1.50
2023-03-27T16:46:22.245Z,2.28
2023-03-27T16:48:52.340Z,1.63
2023-03-27T16:51:25.558Z,1.40
2023-03-27T16:53:53.671Z,1.90
2023-03-27T16:56:22.457Z,1.67
2023-03-27T16:58:50.850Z,1.58
2023-03-27T17:01:24.398Z,1.80
2023-03-27T17:03:54.086Z,1.52
2023-03-27T17:06:24.688Z,1.67
2023-03-27T17:08:55.950Z,1.90
2023-03-27T17:11:29.084Z,1.38
2023-03-27T17:13:57.011Z,1.63
2023-03-27T17:16:25.263Z,7.65
2023-03-27T17:18:55.599Z,3.67
2023-03-27T17:21:25.133Z,3.90
2023-03-27T17:23:54.637Z,2.00
2023-03-27T17:26:28.328Z,2.30
2023-03-27T17:28:57.112Z,2.70
2023-03-27T17:31:27.258Z,2.03
2023-03-27T17:33:56.985Z,2.40
2023-03-27T17:36:39.775Z,2.47
2023-03-27T17:39:11.539Z,2.50
2023-03-27T17:41:39.831Z,1.98
2023-03-27T17:44:08.976Z,2.50
2023-03-27T17:46:39.995Z,2.33
2023-03-27T17:49:07.968Z,2.50
2023-03-27T17:51:36.442Z,3.03
2023-03-27T17:54:04.951Z,2.53
2023-03-27T17:56:33.790Z,2.97
2023-03-27T17:59:02.687Z,3.05
2023-03-27T18:01:32.418Z,2.83
2023-03-27T18:04:00.905Z,3.00
2023-03-27T18:06:32.678Z,3.35
2023-03-27T18:09:07.636Z,3.40
2023-03-27T18:11:36.255Z,2.97
2023-03-27T18:14:04.520Z,2.85
2023-03-27T18:16:33.690Z,2.88
2023-03-27T18:19:02.395Z,2.80
2023-03-27T18:21:31.912Z,2.88
2023-03-27T18:24:01.396Z,3.03
2023-03-27T18:26:29.925Z,3.50
2023-03-27T18:28:58.007Z,2.97
2023-03-27T18:31:26.539Z,2.75
2023-03-27T18:33:54.408Z,2.60
2023-03-27T18:36:22.830Z,2.72
2023-03-27T18:38:52.255Z,3.00
2023-03-27T18:41:21.416Z,3.00
2023-03-27T18:43:50.305Z,2.90
2023-03-27T18:46:22.720Z,5.68
2023-03-27T18:48:55.805Z,2.90
2023-03-27T18:51:24.248Z,4.32
2023-03-27T18:53:55.896Z,13.55
2023-03-27T18:56:30.672Z,3.13
2023-03-27T18:58:58.773Z,3.03
2023-03-27T19:01:29.111Z,2.80
2023-03-27T19:03:57.046Z,2.80
2023-03-27T19:06:25.729Z,3.33
2023-03-27T19:08:54.873Z,3.25
2023-03-27T19:11:27.987Z,4.00
2023-03-27T19:14:08.656Z,3.05
2023-03-27T19:17:15.164Z,2.65
2023-03-27T19:20:02.307Z,2.92
2023-03-27T19:22:51.121Z,3.00
2023-03-27T19:25:29.516Z,3.00
2023-03-27T19:27:57.781Z,3.10
2023-03-27T19:30:25.906Z,3.42
2023-03-27T19:32:58.270Z,3.03
2023-03-27T19:35:26.835Z,3.08
2023-03-27T19:37:56.265Z,2.90
2023-03-27T19:40:27.197Z,3.10
2023-03-27T19:42:57.209Z,3.03
2023-03-27T19:45:25.030Z,2.80
2023-03-27T19:47:54.176Z,3.22
2023-03-27T19:50:23.998Z,2.90
2023-03-27T19:53:08.154Z,2.85
2023-03-27T19:55:38.656Z,2.78
2023-03-27T19:58:07.002Z,2.90
2023-03-27T20:00:40.130Z,10.10
2023-03-27T20:03:16.886Z,3.75
2023-03-27T20:05:48.494Z,3.20
2023-03-27T20:08:20.537Z,3.28
2023-03-27T20:10:50.064Z,3.65
2023-03-27T20:13:19.353Z,3.35
2023-03-27T20:15:52.970Z,2.88
2023-03-27T20:18:22.502Z,3.25
2023-03-27T20:20:50.614Z,3.15
2023-03-27T20:23:43.580Z,2.95
2023-03-27T20:26:30.419Z,3.10
2023-03-27T20:29:35.300Z,3.40
2023-03-27T20:32:28.620Z,2.63
2023-03-27T20:35:41.291Z,2.38
2023-03-27T20:38:11.058Z,2.70
2023-03-27T20:43:17.015Z,2.80
2023-03-27T20:45:46.025Z,2.47
2023-03-27T20:48:16.562Z,2.30
2023-03-27T20:50:55.683Z,2.85
2023-03-27T20:53:32.436Z,2.75
2023-03-27T20:56:04.940Z,2.60
2023-03-27T20:58:34.681Z,2.47
2023-03-27T21:01:05.816Z,2.85
2023-03-27T21:03:35.266Z,2.53
2023-03-27T21:06:14.306Z,2.70
2023-03-27T21:08:42.158Z,7.25
2023-03-27T21:11:12.139Z,4.50
2023-03-27T21:13:41.163Z,2.25
2023-03-27T21:16:10.964Z,2.58
2023-03-27T21:18:39.158Z,2.50
2023-03-27T21:21:07.949Z,2.50
2023-03-27T21:23:41.826Z,2.53
2023-03-27T21:26:10.485Z,2.03
2023-03-27T21:28:38.879Z,1.88
2023-03-27T21:31:11.310Z,2.63
2023-03-27T21:33:39.781Z,2.33
2023-03-27T21:36:09.666Z,2.33
2023-03-27T21:38:37.700Z,2.10
2023-03-27T21:41:08.002Z,2.20
2023-03-27T21:43:36.054Z,2.40
2023-03-27T21:46:05.846Z,2.22
2023-03-27T21:48:33.879Z,2.30
2023-03-27T21:51:07.415Z,2.28
2023-03-27T21:53:35.269Z,2.75
2023-03-27T21:56:06.352Z,2.33
2023-03-27T21:58:34.353Z,2.00
2023-03-27T22:01:04.076Z,2.70
2023-03-27T22:03:32.173Z,2.80
2023-03-27T22:06:12.236Z,3.50
2023-03-27T22:08:43.217Z,3.03
2023-03-27T22:11:13.317Z,3.17
2023-03-27T22:13:42.098Z,3.28
2023-03-27T22:16:17.206Z,3.30
2023-03-27T22:18:45.354Z,2.90
2023-03-27T22:21:26.126Z,3.13
2023-03-27T22:23:56.474Z,2.72
2023-03-27T22:26:37.164Z,3.20
2023-03-27T22:29:08.189Z,3.47
2023-03-27T22:31:37.356Z,3.60
2023-03-27T22:34:05.739Z,4.00
2023-03-27T22:36:37.231Z,3.15
2023-03-27T22:39:25.778Z,3.22
2023-03-27T22:41:56.102Z,3.40
2023-03-27T22:44:24.204Z,3.72
2023-03-27T22:46:53.319Z,3.92
2023-03-27T22:49:22.763Z,3.90
2023-03-27T22:51:51.178Z,3.92
2023-03-27T22:54:20.528Z,4.00
2023-03-27T22:56:48.929Z,4.47
2023-03-27T22:59:19.977Z,3.85
2023-03-27T23:01:48.619Z,4.00
2023-03-27T23:04:16.995Z,4.43
2023-03-27T23:06:45.259Z,3.88
2023-03-27T23:09:13.226Z,4.25
2023-03-27T23:11:41.795Z,4.13
2023-03-27T23:14:10.170Z,4.20
2023-03-27T23:16:41.054Z,4.22
2023-03-27T23:19:09.815Z,4.30
2023-03-27T23:21:38.030Z,4.18
2023-03-27T23:24:07.023Z,3.83
2023-03-27T23:26:35.149Z,4.00
2023-03-27T23:29:03.021Z,4.13
2023-03-27T23:31:31.653Z,3.97
2023-03-27T23:33:59.494Z,4.03
2023-03-27T23:36:28.924Z,3.88
2023-03-27T23:38:56.980Z,4.30
2023-03-27T23:41:25.111Z,4.13
2023-03-27T23:43:55.189Z,4.03
2023-03-27T23:46:23.502Z,4.15
2023-03-27T23:48:51.755Z,3.65
2023-03-27T23:51:20.216Z,4.03
2023-03-27T23:53:49.205Z,3.75
2023-03-27T23:56:17.338Z,4.15
2023-03-27T23:58:45.267Z,3.97
